Time;durP1;ratioP1;P1;durP2;ratioP2;P2;SDS_P1;SDS_P2;PMS_P1;PMS_P2;Temp;Humidity;BMP_temperature;BMP_pressure;BME280_temperature;BME280_humidity;BME280_pressure;Samples;Min_cycle;Max_cycle;Signal;HPM_P1;HPM_P2
2023/12/29 04:00:56;;;;;;;0.50;0.50;;;23.80;32.60;;;;;;5746662;22;47905;-89
2023/12/29 04:03:21;;;;;;;0.70;0.50;;;23.80;32.60;;;;;;5008834;28;44982;-89
2023/12/29 04:05:47;;;;;;;0.50;0.50;;;23.80;32.70;;;;;;4969941;28;47247;-89
2023/12/29 04:08:15;;;;;;;0.77;0.60;;;23.80;32.70;;;;;;5001177;28;63397;-89
2023/12/29 04:10:41;;;;;;;0.68;0.43;;;23.80;32.70;;;;;;5002932;28;45072;-89
2023/12/29 04:13:07;;;;;;;1.60;0.70;;;23.80;32.70;;;;;;5020107;28;45341;-91
2023/12/29 04:15:33;;;;;;;0.50;0.50;;;23.80;32.70;;;;;;5019260;28;45624;-89
2023/12/29 04:17:59;;;;;;;0.60;0.53;;;23.70;32.70;;;;;;5006611;28;44634;-89
2023/12/29 04:20:26;;;;;;;0.40;0.40;;;23.70;32.70;;;;;;5020319;28;45072;-89
2023/12/29 04:22:52;;;;;;;0.68;0.50;;;23.70;32.70;;;;;;5016497;28;45266;-89
2023/12/29 04:25:18;;;;;;;0.70;0.53;;;23.70;33.30;;;;;;4990451;28;46230;-90
2023/12/29 04:27:44;;;;;;;0.47;0.47;;;23.80;32.70;;;;;;5020081;28;45015;-90
2023/12/29 04:30:10;;;;;;;0.55;0.52;;;23.70;32.70;;;;;;5010651;28;45174;-92
2023/12/29 04:32:36;;;;;;;0.70;0.40;;;23.70;32.70;;;;;;4986400;28;45135;-89
2023/12/29 04:35:05;;;;;;;0.60;0.50;;;23.70;32.80;;;;;;4983432;28;46258;-90
2023/12/29 04:37:31;;;;;;;0.50;0.50;;;23.70;32.70;;;;;;4991113;28;45104;-90
2023/12/29 04:39:57;;;;;;;0.80;0.40;;;23.70;32.70;;;;;;5012937;28;45039;-92
2023/12/29 04:42:22;;;;;;;0.75;0.50;;;23.70;32.70;;;;;;4995713;28;45311;-90
2023/12/29 04:44:48;;;;;;;0.98;0.63;;;23.70;32.70;;;;;;5001725;28;46331;-90
2023/12/29 04:47:14;;;;;;;0.85;0.50;;;23.80;32.80;;;;;;4980319;28;45061;-91
2023/12/29 04:49:43;;;;;;;0.60;0.50;;;23.70;32.80;;;;;;5000714;28;44961;-91
2023/12/29 04:52:09;;;;;;;0.55;0.55;;;23.70;32.80;;;;;;5011939;28;45424;-90
2023/12/29 04:54:35;;;;;;;0.70;0.60;;;23.70;32.80;;;;;;5017506;28;45316;-90
2023/12/29 04:57:01;;;;;;;1.00;0.67;;;23.70;32.80;;;;;;4996373;28;45024;-89
2023/12/29 04:59:27;;;;;;;1.00;0.52;;;23.70;32.80;;;;;;4985566;28;45244;-87
2023/12/29 05:01:53;;;;;;;0.68;0.55;;;23.70;32.80;;;;;;5010387;28;44859;-87
2023/12/29 05:04:19;;;;;;;0.47;0.47;;;23.70;32.80;;;;;;5013996;28;45524;-88
2023/12/29 05:06:44;;;;;;;1.30;0.60;;;23.70;32.80;;;;;;4980739;28;45063;-88
2023/12/29 05:09:10;;;;;;;0.77;0.68;;;23.70;32.90;;;;;;4983070;28;45088;-86
2023/12/29 05:11:36;;;;;;;0.90;0.60;;;23.70;32.90;;;;;;5016785;28;44812;-88
2023/12/29 05:14:01;;;;;;;0.40;0.40;;;23.60;32.80;;;;;;4998941;28;46001;-87
2023/12/29 05:16:27;;;;;;;0.73;0.60;;;23.60;32.90;;;;;;4980616;28;45151;-91
2023/12/29 05:18:53;;;;;;;0.52;0.50;;;23.60;32.80;;;;;;5002440;28;44870;-88
2023/12/29 05:21:19;;;;;;;0.60;0.60;;;23.60;32.80;;;;;;5012695;28;45137;-87
2023/12/29 05:23:45;;;;;;;0.73;0.53;;;23.60;32.90;;;;;;5001088;28;46543;-87
2023/12/29 05:26:11;;;;;;;0.90;0.60;;;23.60;32.90;;;;;;4998218;28;45440;-89
2023/12/29 05:28:40;;;;;;;0.60;0.60;;;23.60;32.90;;;;;;5017599;28;44967;-87
2023/12/29 05:31:05;;;;;;;0.95;0.60;;;23.60;33.00;;;;;;5020635;28;45437;-87
2023/12/29 05:33:31;;;;;;;0.50;0.50;;;23.60;32.90;;;;;;5000584;28;46329;-88
2023/12/29 05:35:57;;;;;;;0.75;0.60;;;23.60;32.90;;;;;;4994472;28;44821;-89
2023/12/29 05:38:23;;;;;;;0.57;0.57;;;23.60;33.00;;;;;;4994264;28;45593;-88
2023/12/29 05:40:50;;;;;;;0.90;0.50;;;23.60;33.00;;;;;;4995372;28;44748;-87
2023/12/29 05:43:17;;;;;;;0.60;0.60;;;23.60;33.00;;;;;;4997755;28;47494;-87
2023/12/29 05:45:43;;;;;;;0.50;0.50;;;23.60;33.00;;;;;;5007795;28;45282;-87
2023/12/29 05:48:09;;;;;;;0.80;0.70;;;23.60;33.00;;;;;;4997238;28;45060;-87
2023/12/29 05:50:35;;;;;;;0.67;0.50;;;23.50;33.00;;;;;;5002496;28;44938;-88
2023/12/29 05:53:01;;;;;;;0.90;0.68;;;23.50;33.00;;;;;;4985097;28;47068;-88
2023/12/29 05:55:27;;;;;;;0.65;0.45;;;23.60;33.00;;;;;;4994869;28;45061;-90
2023/12/29 05:57:53;;;;;;;1.02;0.60;;;23.50;33.00;;;;;;5022148;28;45063;-85
2023/12/29 06:00:20;;;;;;;0.85;0.63;;;23.50;33.00;;;;;;5010439;28;45529;-87
2023/12/29 06:02:46;;;;;;;0.75;0.50;;;23.60;33.10;;;;;;5025887;28;45211;-88
2023/12/29 06:05:12;;;;;;;0.70;0.50;;;23.50;33.10;;;;;;5013536;28;45191;-89
2023/12/29 06:07:38;;;;;;;0.60;0.45;;;23.50;33.10;;;;;;5000351;28;44885;-86
2023/12/29 06:10:04;;;;;;;0.68;0.60;;;23.50;33.00;;;;;;5000631;28;45189;-87
2023/12/29 06:12:30;;;;;;;0.57;0.57;;;23.50;33.00;;;;;;5001474;28;45182;-87
2023/12/29 06:14:56;;;;;;;1.03;0.70;;;23.50;33.10;;;;;;5007539;28;44912;-87
2023/12/29 06:17:22;;;;;;;0.60;0.60;;;23.50;33.10;;;;;;5032004;28;45192;-87
2023/12/29 06:19:48;;;;;;;0.88;0.63;;;23.50;33.10;;;;;;5003246;28;45393;-88
2023/12/29 06:22:14;;;;;;;0.70;0.60;;;23.50;33.10;;;;;;4996389;28;45597;-87
2023/12/29 06:24:40;;;;;;;0.50;0.50;;;23.50;33.10;;;;;;5015692;28;45165;-87
2023/12/29 06:27:08;;;;;;;1.00;0.60;;;23.50;33.10;;;;;;4997271;28;45168;-87
2023/12/29 06:29:34;;;;;;;0.90;0.70;;;23.50;33.10;;;;;;5005519;28;45272;-87
2023/12/29 06:32:00;;;;;;;0.50;0.50;;;23.50;33.10;;;;;;4997741;28;45813;-88
2023/12/29 06:34:26;;;;;;;0.80;0.60;;;23.50;33.10;;;;;;5002181;28;45091;-86
2023/12/29 06:36:52;;;;;;;0.90;0.70;;;23.40;33.10;;;;;;5002531;28;45088;-87
2023/12/29 06:39:17;;;;;;;0.65;0.60;;;23.50;33.10;;;;;;4982129;28;45102;-87
2023/12/29 06:41:43;;;;;;;0.60;0.60;;;23.40;33.00;;;;;;5001746;28;46279;-87
2023/12/29 06:44:10;;;;;;;0.70;0.50;;;23.40;33.00;;;;;;4997264;28;44756;-87
2023/12/29 06:46:39;;;;;;;0.80;0.68;;;23.40;33.00;;;;;;4997849;28;45121;-88
2023/12/29 06:49:07;;;;;;;0.52;0.52;;;23.40;33.10;;;;;;5017882;28;45254;-90
2023/12/29 06:51:34;;;;;;;0.90;0.70;;;23.40;33.10;;;;;;5026404;28;46972;-90
2023/12/29 06:54:00;;;;;;;0.63;0.57;;;23.40;33.10;;;;;;5022836;28;45547;-87
2023/12/29 06:56:26;;;;;;;0.80;0.60;;;23.40;33.10;;;;;;5013624;28;45070;-87
2023/12/29 06:58:52;;;;;;;0.80;0.60;;;23.40;33.10;;;;;;4999039;28;45005;-87
2023/12/29 07:01:18;;;;;;;0.70;0.60;;;23.40;33.10;;;;;;4977831;28;45877;-87
2023/12/29 07:03:44;;;;;;;0.57;0.50;;;23.40;33.10;;;;;;5015585;28;45008;-88
2023/12/29 07:06:10;;;;;;;0.82;0.60;;;23.40;33.10;;;;;;5013398;28;45064;-89
2023/12/29 07:08:36;;;;;;;0.75;0.60;;;23.40;33.10;;;;;;5000883;28;45462;-89
2023/12/29 07:11:02;;;;;;;0.60;0.50;;;23.40;33.10;;;;;;5020336;28;46200;-87
2023/12/29 07:13:28;;;;;;;0.65;0.60;;;23.40;33.10;;;;;;5007300;28;44912;-87
2023/12/29 07:15:58;;;;;;;0.90;0.63;;;23.40;33.10;;;;;;5014139;28;44875;-89
2023/12/29 07:18:23;;;;;;;0.57;0.55;;;23.40;33.20;;;;;;5012092;28;44919;-89
2023/12/29 07:20:50;;;;;;;0.60;0.60;;;23.30;33.10;;;;;;5009702;28;45479;-88
2023/12/29 07:23:23;;;;;;;0.88;0.60;;;23.30;33.10;;;;;;5013422;28;45046;-89
2023/12/29 07:25:52;;;;;;;0.68;0.60;;;23.30;33.10;;;;;;5007639;28;44756;-87
2023/12/29 07:28:17;;;;;;;0.68;0.63;;;23.30;33.20;;;;;;5013470;28;44888;-88
2023/12/29 07:30:43;;;;;;;0.67;0.60;;;23.30;33.20;;;;;;4993607;28;47503;-91
2023/12/29 07:33:09;;;;;;;0.95;0.55;;;23.30;33.30;;;;;;4996052;28;44713;-88
2023/12/29 07:35:35;;;;;;;0.70;0.60;;;23.30;33.20;;;;;;4997877;28;44920;-88
2023/12/29 07:38:01;;;;;;;1.10;0.97;;;23.30;33.20;;;;;;4999997;28;45158;-85
2023/12/29 07:40:27;;;;;;;1.30;0.95;;;23.30;33.20;;;;;;4996949;28;45674;-89
2023/12/29 07:42:52;;;;;;;1.27;0.90;;;23.30;33.20;;;;;;4991209;28;44919;-88
2023/12/29 07:45:18;;;;;;;1.67;1.10;;;23.30;33.20;;;;;;4979328;28;45144;-87
2023/12/29 07:47:44;;;;;;;1.33;1.10;;;23.30;33.30;;;;;;5010212;28;45002;-87
2023/12/29 07:50:10;;;;;;;1.48;1.10;;;23.30;33.30;;;;;;5009043;28;46268;-87
2023/12/29 07:52:36;;;;;;;1.70;1.10;;;23.30;33.30;;;;;;4983452;28;45101;-88
2023/12/29 07:55:02;;;;;;;1.90;1.40;;;23.30;33.30;;;;;;5012906;28;45610;-87
2023/12/29 07:57:28;;;;;;;1.95;1.20;;;23.30;33.30;;;;;;4962777;28;45887;-89
2023/12/29 07:59:54;;;;;;;2.10;1.38;;;23.30;33.30;;;;;;5011621;28;45264;-88
2023/12/29 08:02:20;;;;;;;1.40;1.20;;;23.30;33.30;;;;;;4978512;28;44889;-87
2023/12/29 08:04:48;;;;;;;1.40;1.10;;;23.20;33.30;;;;;;5008810;28;45002;-87
2023/12/29 08:07:14;;;;;;;1.73;1.20;;;23.30;33.30;;;;;;5025317;28;45147;-87
2023/12/29 08:09:39;;;;;;;1.90;1.30;;;23.30;33.40;;;;;;4994980;28;46515;-87
2023/12/29 08:12:07;;;;;;;1.95;1.33;;;23.30;33.40;;;;;;4996815;28;45029;-88
2023/12/29 08:14:33;;;;;;;1.40;1.20;;;23.30;33.40;;;;;;5012670;28;44886;-89
2023/12/29 08:16:59;;;;;;;1.50;1.20;;;23.20;33.40;;;;;;4995476;28;45191;-89
2023/12/29 08:19:25;;;;;;;1.50;1.20;;;23.20;33.40;;;;;;5011016;28;46288;-88
2023/12/29 08:21:51;;;;;;;1.52;1.30;;;23.20;33.40;;;;;;5011336;28;45052;-88
2023/12/29 08:24:17;;;;;;;1.30;1.10;;;23.20;33.40;;;;;;4963662;28;45012;-88
2023/12/29 08:26:46;;;;;;;1.23;1.10;;;23.20;33.90;;;;;;5011176;28;45285;-88
2023/12/29 08:29:12;;;;;;;1.75;1.27;;;23.20;33.50;;;;;;5017268;28;46185;-87
2023/12/29 08:31:39;;;;;;;1.58;1.20;;;23.20;33.50;;;;;;4993553;28;44926;-88
2023/12/29 08:34:04;;;;;;;1.20;1.08;;;23.20;33.50;;;;;;5019563;28;44922;-87
2023/12/29 08:36:30;;;;;;;1.33;1.08;;;23.20;33.50;;;;;;4980483;28;45227;-87
2023/12/29 08:38:56;;;;;;;1.33;1.10;;;23.20;33.60;;;;;;5009678;28;46389;-88
2023/12/29 08:41:22;;;;;;;1.30;1.00;;;23.10;33.50;;;;;;5002797;28;45972;-87
2023/12/29 08:43:48;;;;;;;1.27;1.10;;;23.10;33.60;;;;;;4998356;28;44750;-85
2023/12/29 08:46:14;;;;;;;1.10;1.00;;;23.10;33.60;;;;;;5000334;28;45103;-92
2023/12/29 08:48:40;;;;;;;1.02;0.90;;;23.10;33.60;;;;;;5005727;28;46540;-87
2023/12/29 08:51:06;;;;;;;1.30;1.10;;;23.10;33.60;;;;;;4992677;28;44690;-89
2023/12/29 08:53:35;;;;;;;1.30;1.13;;;23.10;33.60;;;;;;4997466;28;44713;-88
2023/12/29 08:56:04;;;;;;;1.13;0.95;;;23.10;33.60;;;;;;5009378;28;45002;-88
2023/12/29 08:58:31;;;;;;;1.00;0.88;;;23.10;33.60;;;;;;5011097;28;45179;-87
2023/12/29 09:00:57;;;;;;;1.00;0.90;;;23.10;33.60;;;;;;4983897;28;45791;-88
2023/12/29 09:03:22;;;;;;;0.90;0.80;;;23.10;33.60;;;;;;5015746;28;45177;-87
2023/12/29 09:05:48;;;;;;;0.80;0.60;;;23.10;33.70;;;;;;5006127;28;44911;-87
2023/12/29 09:08:14;;;;;;;1.55;0.80;;;23.10;33.70;;;;;;4995902;28;45349;-86
2023/12/29 09:10:41;;;;;;;0.80;0.80;;;23.10;33.70;;;;;;4999679;28;45283;-87
2023/12/29 09:13:07;;;;;;;1.13;0.80;;;23.10;33.80;;;;;;4995863;28;45333;-87
2023/12/29 09:15:34;;;;;;;1.45;0.80;;;23.10;33.80;;;;;;4995888;28;45010;-91
2023/12/29 09:18:01;;;;;;;0.85;0.70;;;23.00;33.70;;;;;;5011255;28;45740;-90
2023/12/29 09:20:27;;;;;;;0.90;0.77;;;23.10;33.80;;;;;;5010292;28;46148;-92
2023/12/29 09:22:53;;;;;;;0.95;0.80;;;23.10;33.80;;;;;;5008940;28;45027;-90
2023/12/29 09:25:19;;;;;;;1.15;0.85;;;23.00;33.80;;;;;;5008953;28;45054;-87
2023/12/29 09:27:47;;;;;;;1.15;0.77;;;23.00;33.80;;;;;;4992286;28;46368;-88
2023/12/29 09:30:13;;;;;;;0.70;0.70;;;23.10;33.90;;;;;;4989025;28;45138;-90
2023/12/29 09:32:39;;;;;;;0.60;0.60;;;23.00;33.80;;;;;;5015897;28;45729;-87
2023/12/29 09:35:06;;;;;;;0.50;0.50;;;23.00;33.80;;;;;;5021876;28;45190;-92
2023/12/29 09:37:32;;;;;;;0.97;0.60;;;23.00;33.90;;;;;;4979129;28;47096;-89
2023/12/29 09:39:57;;;;;;;0.77;0.60;;;23.00;33.90;;;;;;5015236;28;46007;-90
2023/12/29 09:42:24;;;;;;;0.80;0.80;;;23.00;33.90;;;;;;5013610;28;45361;-90
2023/12/29 09:44:51;;;;;;;0.60;0.60;;;23.00;33.90;;;;;;5019353;28;45126;-89
2023/12/29 09:47:20;;;;;;;0.60;0.60;;;23.00;33.90;;;;;;5015216;28;46098;-91
2023/12/29 09:49:46;;;;;;;0.63;0.60;;;23.00;33.90;;;;;;5014537;28;44996;-90
2023/12/29 09:52:12;;;;;;;0.50;0.50;;;23.00;34.00;;;;;;5006254;28;45671;-89
2023/12/29 09:54:38;;;;;;;0.55;0.50;;;23.00;34.00;;;;;;5010540;28;44900;-89
2023/12/29 09:57:05;;;;;;;0.77;0.60;;;23.00;34.00;;;;;;5014873;28;46278;-91
2023/12/29 09:59:32;;;;;;;0.40;0.40;;;22.90;34.00;;;;;;5004649;28;45233;-91
2023/12/29 10:01:59;;;;;;;0.88;0.63;;;23.00;34.00;;;;;;4990737;28;45406;-91
2023/12/29 10:04:25;;;;;;;0.95;0.40;;;22.90;34.00;;;;;;5017176;28;45580;-87
2023/12/29 10:06:51;;;;;;;1.20;0.70;;;22.90;34.00;;;;;;5033128;28;45494;-88
2023/12/29 10:09:17;;;;;;;1.00;0.50;;;22.90;34.00;;;;;;4997212;28;45009;-87
2023/12/29 10:11:43;;;;;;;1.20;0.50;;;22.90;34.00;;;;;;5006225;28;45569;-90
2023/12/29 10:14:36;;;;;;;0.50;0.50;;;22.90;34.00;;;;;;5002633;28;45181;-87
2023/12/29 10:17:24;;;;;;;0.60;0.60;;;22.90;34.10;;;;;;5009504;28;45682;-87
2023/12/29 10:19:53;;;;;;;0.77;0.50;;;22.90;34.10;;;;;;5034342;28;45369;-87
2023/12/29 10:22:21;;;;;;;0.90;0.50;;;22.90;34.10;;;;;;4984248;28;45155;-90
2023/12/29 10:24:47;;;;;;;0.73;0.50;;;22.90;34.10;;;;;;5015403;28;45430;-87
2023/12/29 10:27:14;;;;;;;0.50;0.50;;;22.90;34.10;;;;;;5032372;28;46196;-88
2023/12/29 10:29:39;;;;;;;0.55;0.50;;;22.90;34.20;;;;;;5027651;28;45413;-88
2023/12/29 10:32:05;;;;;;;0.40;0.40;;;22.90;34.20;;;;;;5012573;28;44947;-87
2023/12/29 10:34:32;;;;;;;0.65;0.40;;;22.90;34.20;;;;;;4978788;28;45097;-87
2023/12/29 10:37:03;;;;;;;0.40;0.40;;;22.90;34.20;;;;;;5015036;28;45328;-87
2023/12/29 10:39:29;;;;;;;0.38;0.30;;;22.90;34.20;;;;;;4998093;28;45092;-87
2023/12/29 10:42:06;;;;;;;0.40;0.40;;;22.90;34.20;;;;;;5009299;28;45175;-88
2023/12/29 10:44:32;;;;;;;0.47;0.47;;;22.90;34.20;;;;;;4991797;28;45351;-87
2023/12/29 10:46:58;;;;;;;0.40;0.40;;;22.90;34.20;;;;;;4992563;28;46471;-88
2023/12/29 10:49:24;;;;;;;0.40;0.40;;;22.90;34.80;;;;;;5013852;28;45092;-87
2023/12/29 10:51:50;;;;;;;0.70;0.50;;;22.90;34.20;;;;;;4995328;28;45560;-89
2023/12/29 10:54:23;;;;;;;0.60;0.40;;;22.90;34.20;;;;;;5015029;28;45188;-88
2023/12/29 10:57:05;;;;;;;0.47;0.40;;;22.90;34.30;;;;;;4999295;28;46486;-88
2023/12/29 10:59:30;;;;;;;0.40;0.40;;;22.90;34.30;;;;;;4993686;28;44994;-88
2023/12/29 11:01:56;;;;;;;0.40;0.40;;;22.80;34.20;;;;;;4990774;28;44734;-88
2023/12/29 11:04:23;;;;;;;0.60;0.40;;;22.90;34.30;;;;;;5011328;28;44737;-89
2023/12/29 11:06:51;;;;;;;0.50;0.50;;;22.80;34.30;;;;;;5026573;28;46314;-88
2023/12/29 11:09:34;;;;;;;0.50;0.40;;;22.80;34.30;;;;;;5014369;28;45219;-89
2023/12/29 11:12:00;;;;;;;0.40;0.40;;;22.80;34.30;;;;;;5001092;28;45278;-88
2023/12/29 11:14:28;;;;;;;0.40;0.40;;;22.80;34.30;;;;;;5016926;28;45319;-89
2023/12/29 11:16:54;;;;;;;0.50;0.50;;;22.80;34.40;;;;;;4990333;28;46467;-88
2023/12/29 11:19:20;;;;;;;0.47;0.47;;;22.80;34.40;;;;;;4994829;28;45103;-88
2023/12/29 11:21:46;;;;;;;0.73;0.50;;;22.80;34.40;;;;;;5015386;28;44768;-88
2023/12/29 11:24:11;;;;;;;1.40;0.40;;;22.80;34.40;;;;;;4999502;28;45322;-89
2023/12/29 11:26:37;;;;;;;0.57;0.50;;;22.80;34.40;;;;;;5012240;28;45937;-88
2023/12/29 11:29:04;;;;;;;0.87;0.53;;;22.80;34.50;;;;;;4998946;28;44915;-87
2023/12/29 11:31:30;;;;;;;0.40;0.33;;;22.80;34.50;;;;;;4997557;28;45494;-88
2023/12/29 11:34:00;;;;;;;0.55;0.43;;;22.80;34.50;;;;;;5012662;28;45647;-88
2023/12/29 11:36:29;;;;;;;0.47;0.40;;;22.80;34.50;;;;;;5023219;28;45366;-88
2023/12/29 11:39:04;;;;;;;0.60;0.55;;;22.80;34.50;;;;;;4984467;28;45353;-91
2023/12/29 11:41:32;;;;;;;0.50;0.50;;;22.80;34.50;;;;;;4995020;28;44767;-88
2023/12/29 11:43:58;;;;;;;0.57;0.47;;;22.80;34.50;;;;;;5006968;28;45261;-89
2023/12/29 11:46:42;;;;;;;0.40;0.40;;;22.80;34.50;;;;;;4997753;28;46281;-87
2023/12/29 11:49:09;;;;;;;0.80;0.50;;;22.80;34.60;;;;;;5005106;28;44985;-89
2023/12/29 11:51:46;;;;;;;0.83;0.40;;;22.70;34.50;;;;;;5001611;28;45431;-90
2023/12/29 11:54:22;;;;;;;0.70;0.50;;;22.80;34.60;;;;;;5017711;28;45637;-88
2023/12/29 11:56:48;;;;;;;0.43;0.40;;;22.70;34.50;;;;;;5016491;28;46212;-87
2023/12/29 11:59:21;;;;;;;0.50;0.40;;;22.70;34.60;;;;;;5016574;28;45640;-90
2023/12/29 12:01:56;;;;;;;0.60;0.60;;;22.70;34.60;;;;;;4988014;28;45529;-89
2023/12/29 12:04:41;;;;;;;0.40;0.40;;;22.70;34.60;;;;;;4997752;28;45039;-88
2023/12/29 12:07:17;;;;;;;0.83;0.50;;;22.70;34.60;;;;;;5010955;28;46892;-88
2023/12/29 12:09:43;;;;;;;0.90;0.70;;;22.70;34.60;;;;;;4994592;28;45273;-88
2023/12/29 12:12:09;;;;;;;0.80;0.73;;;22.70;34.70;;;;;;4990562;28;45268;-87
2023/12/29 12:14:43;;;;;;;0.80;0.60;;;22.70;34.70;;;;;;5011254;28;44898;-88
2023/12/29 12:17:10;;;;;;;0.50;0.50;;;22.70;34.70;;;;;;5010154;28;46606;-87
2023/12/29 12:19:35;;;;;;;0.60;0.60;;;22.70;34.70;;;;;;5027953;28;45281;-88
2023/12/29 12:22:02;;;;;;;0.90;0.70;;;22.70;34.70;;;;;;4984967;28;44993;-89
2023/12/29 12:24:27;;;;;;;1.10;0.80;;;22.70;34.80;;;;;;4985019;28;44950;-87
2023/12/29 12:26:54;;;;;;;0.80;0.75;;;22.70;34.80;;;;;;4995236;28;46951;-88
2023/12/29 12:29:20;;;;;;;1.02;0.93;;;22.70;34.80;;;;;;4996456;28;45380;-87
2023/12/29 12:31:56;;;;;;;1.15;1.05;;;22.70;34.80;;;;;;4997304;28;45038;-87
2023/12/29 12:34:22;;;;;;;1.57;1.20;;;22.60;34.90;;;;;;4999618;28;45675;-89
2023/12/29 12:36:50;;;;;;;1.30;1.20;;;22.60;34.90;;;;;;4977933;28;45890;-87
2023/12/29 12:39:15;;;;;;;1.83;1.30;;;22.60;35.00;;;;;;4977830;28;45301;-88
2023/12/29 12:41:42;;;;;;;2.67;1.25;;;22.70;35.10;;;;;;4994696;28;45290;-87
2023/12/29 12:44:12;;;;;;;2.15;1.20;;;22.60;35.10;;;;;;5016193;28;45419;-88
2023/12/29 12:46:48;;;;;;;2.37;1.30;;;22.60;35.10;;;;;;5010288;28;45354;-86
2023/12/29 12:49:13;;;;;;;1.30;1.20;;;22.70;35.30;;;;;;5013474;28;45080;-89
2023/12/29 12:51:39;;;;;;;2.20;1.23;;;22.70;35.30;;;;;;4979531;28;44861;-88
2023/12/29 12:54:05;;;;;;;1.70;1.23;;;22.70;35.40;;;;;;4997280;28;45496;-88
2023/12/29 12:56:30;;;;;;;1.73;1.10;;;22.70;35.40;;;;;;4978486;28;45653;-88
2023/12/29 12:59:01;;;;;;;1.42;1.30;;;22.70;35.40;;;;;;4995826;28;44826;-88
2023/12/29 13:01:28;;;;;;;1.60;1.08;;;22.70;35.50;;;;;;5009778;28;45034;-94
2023/12/29 13:03:54;;;;;;;1.17;0.90;;;22.70;35.50;;;;;;5011776;28;45270;-88
2023/12/29 13:06:20;;;;;;;1.67;1.07;;;22.70;35.50;;;;;;4982968;28;45818;-88
2023/12/29 13:08:49;;;;;;;1.10;0.90;;;22.70;35.60;;;;;;4993082;28;44871;-89
2023/12/29 13:11:25;;;;;;;1.20;1.00;;;22.80;35.60;;;;;;5010249;28;45079;-88
2023/12/29 13:37:52;;;;;;;0.70;0.60;;;23.00;35.70;;;;;;4968291;28;45317;-46
2023/12/29 13:40:28;;;;;;;1.83;0.60;;;23.00;35.60;;;;;;4959432;28;45266;-49
2023/12/29 13:42:58;;;;;;;0.85;0.60;;;23.00;35.70;;;;;;4962263;28;45244;-48
2023/12/29 13:45:24;;;;;;;0.80;0.50;;;23.00;35.60;;;;;;4950524;28;46146;-48
2023/12/29 13:47:50;;;;;;;0.60;0.60;;;23.10;35.60;;;;;;4944580;28;45379;-47
2023/12/29 13:50:16;;;;;;;0.73;0.50;;;23.10;35.60;;;;;;4955764;28;45455;-49
2023/12/29 13:52:42;;;;;;;0.87;0.70;;;23.10;35.50;;;;;;4957847;28;45399;-46
2023/12/29 13:55:07;;;;;;;0.73;0.50;;;23.20;35.50;;;;;;4958256;28;45460;-52
2023/12/29 13:57:34;;;;;;;0.82;0.60;;;23.20;35.40;;;;;;4935644;28;45630;-45
2023/12/29 14:00:23;;;;;;;1.17;0.60;;;23.20;35.40;;;;;;4963827;28;45340;-46
2023/12/29 14:03:07;;;;;;;0.70;0.57;;;23.20;35.40;;;;;;4954071;28;45777;-46
2023/12/29 14:05:42;;;;;;;1.20;0.60;;;23.30;35.40;;;;;;4934495;28;45389;-47
2023/12/29 14:08:16;;;;;;;0.88;0.50;;;23.30;35.40;;;;;;4964313;28;46567;-48
2023/12/29 14:10:42;;;;;;;1.20;0.50;;;23.30;35.30;;;;;;4949005;28;46414;-47
2023/12/29 14:13:08;;;;;;;0.47;0.38;;;23.30;35.30;;;;;;4934977;28;45367;-46
2023/12/29 14:15:41;;;;;;;1.42;0.50;;;23.40;35.30;;;;;;4939117;28;45292;-50
2023/12/29 14:18:46;;;;;;;0.68;0.50;;;23.40;35.20;;;;;;4962653;28;45308;-47
2023/12/29 14:21:26;;;;;;;0.95;0.40;;;23.40;35.20;;;;;;4952780;28;45651;-46
2023/12/29 14:24:04;;;;;;;0.70;0.47;;;23.50;35.30;;;;;;4945406;28;46264;-44
2023/12/29 14:26:30;;;;;;;0.55;0.50;;;23.50;35.20;;;;;;4944554;28;45443;-49
2023/12/29 14:29:09;;;;;;;0.50;0.40;;;23.50;35.20;;;;;;4958462;28;45533;-46
2023/12/29 14:31:39;;;;;;;1.42;0.60;;;23.50;35.20;;;;;;4940677;28;45782;-50
2023/12/29 14:34:05;;;;;;;0.77;0.50;;;23.50;35.10;;;;;;4952222;28;46115;-49
2023/12/29 14:36:34;;;;;;;0.70;0.60;;;23.60;35.20;;;;;;4934385;28;45178;-47
2023/12/29 14:39:00;;;;;;;0.90;0.60;;;23.60;35.10;;;;;;4964194;28;45078;-48
2023/12/29 14:41:26;;;;;;;0.63;0.50;;;23.60;35.10;;;;;;4963694;28;45634;-49
2023/12/29 14:43:52;;;;;;;0.82;0.70;;;23.70;35.10;;;;;;4978020;28;45256;-46
2023/12/29 14:46:18;;;;;;;0.88;0.43;;;23.70;35.10;;;;;;4947496;28;45401;-46
2023/12/29 14:48:43;;;;;;;0.43;0.43;;;23.70;35.00;;;;;;4977453;28;45754;-49
2023/12/29 14:51:09;;;;;;;0.57;0.55;;;23.70;35.00;;;;;;4972154;28;46139;-45
2023/12/29 14:53:34;;;;;;;0.90;0.50;;;23.80;35.00;;;;;;4980012;28;45901;-49
2023/12/29 14:56:00;;;;;;;0.90;0.40;;;23.80;34.90;;;;;;4967017;28;46065;-51
2023/12/29 14:58:26;;;;;;;0.70;0.40;;;23.80;34.90;;;;;;4965023;28;45284;-45
2023/12/29 15:00:51;;;;;;;1.17;0.50;;;23.80;34.80;;;;;;4961550;28;45935;-45
2023/12/29 15:03:19;;;;;;;1.30;0.50;;;23.90;34.90;;;;;;4977527;28;45449;-51
2023/12/29 15:05:45;;;;;;;0.80;0.43;;;23.90;34.80;;;;;;4950592;28;45048;-47
2023/12/29 15:08:11;;;;;;;2.10;0.60;;;23.90;34.80;;;;;;4985849;28;45341;-49
2023/12/29 15:10:37;;;;;;;1.25;0.45;;;24.00;34.80;;;;;;4968766;28;45887;-45
2023/12/29 15:13:02;;;;;;;0.77;0.50;;;24.00;34.70;;;;;;4978183;28;46297;-46
2023/12/29 15:15:29;;;;;;;0.47;0.47;;;24.00;34.70;;;;;;4965964;28;45263;-47
2023/12/29 15:17:54;;;;;;;1.10;0.57;;;24.10;34.80;;;;;;4975880;28;45345;-49
2023/12/29 15:20:20;;;;;;;0.85;0.40;;;24.10;34.70;;;;;;4969082;28;45588;-46
2023/12/29 15:22:45;;;;;;;0.40;0.40;;;24.10;34.70;;;;;;4978706;28;45708;-45
2023/12/29 15:25:11;;;;;;;0.70;0.50;;;24.10;34.70;;;;;;4971090;28;45964;-46
2023/12/29 15:27:36;;;;;;;0.45;0.40;;;24.10;34.60;;;;;;4977440;28;45330;-45
2023/12/29 15:30:07;;;;;;;0.40;0.40;;;24.20;34.60;;;;;;4962711;28;45312;-48
2023/12/29 15:32:33;;;;;;;0.80;0.60;;;24.20;34.60;;;;;;4935809;28;45842;-46
2023/12/29 15:34:59;;;;;;;0.60;0.53;;;24.20;34.50;;;;;;4979421;28;44983;-47
2023/12/29 15:37:24;;;;;;;0.63;0.50;;;24.30;34.50;;;;;;4956962;28;45278;-45
2023/12/29 15:39:50;;;;;;;0.70;0.50;;;24.30;34.40;;;;;;4948037;28;47413;-46
2023/12/29 15:42:15;;;;;;;1.00;0.50;;;24.30;34.40;;;;;;4968535;28;45998;-45
2023/12/29 15:44:41;;;;;;;0.63;0.40;;;24.30;34.30;;;;;;4988161;28;45894;-45
2023/12/29 15:47:06;;;;;;;0.88;0.50;;;24.40;34.30;;;;;;4948030;28;45395;-47
2023/12/29 15:49:32;;;;;;;0.68;0.50;;;24.40;34.20;;;;;;4981135;28;46391;-46
2023/12/29 15:51:58;;;;;;;0.75;0.50;;;24.40;34.80;;;;;;4970224;28;46181;-47
2023/12/29 15:54:24;;;;;;;1.10;0.50;;;24.40;34.00;;;;;;4966627;28;45222;-46
2023/12/29 15:56:49;;;;;;;0.90;0.60;;;24.50;34.00;;;;;;4972403;28;45381;-45
2023/12/29 15:59:15;;;;;;;0.50;0.50;;;24.50;34.00;;;;;;4984946;28;45271;-49
2023/12/29 16:01:41;;;;;;;1.60;0.70;;;24.50;33.90;;;;;;4955948;28;46179;-47
2023/12/29 16:04:06;;;;;;;1.00;0.67;;;24.60;33.90;;;;;;4961031;28;45344;-46
2023/12/29 16:06:32;;;;;;;1.03;0.60;;;24.60;33.80;;;;;;4949964;28;45390;-47
2023/12/29 16:08:57;;;;;;;1.23;0.73;;;24.60;33.80;;;;;;4974019;28;45322;-50
2023/12/29 16:11:27;;;;;;;0.83;0.70;;;24.60;33.70;;;;;;4966056;28;45665;-49
2023/12/29 16:13:53;;;;;;;1.10;0.77;;;24.70;33.70;;;;;;4962786;28;45318;-48
2023/12/29 16:16:19;;;;;;;1.25;0.93;;;24.70;33.70;;;;;;4946744;28;45357;-51
2023/12/29 16:18:45;;;;;;;1.17;0.63;;;24.70;33.60;;;;;;4975499;28;46340;-44
2023/12/29 16:21:11;;;;;;;0.60;0.50;;;24.70;33.50;;;;;;4946645;28;47781;-44
2023/12/29 16:23:37;;;;;;;0.80;0.70;;;24.80;33.50;;;;;;4967036;28;45910;-43
2023/12/29 16:26:09;;;;;;;0.80;0.60;;;24.80;33.40;;;;;;4960963;28;46466;-47
2023/12/29 16:28:35;;;;;;;1.30;0.63;;;24.80;33.30;;;;;;4961355;28;45412;-45
2023/12/29 16:31:05;;;;;;;1.10;0.60;;;24.80;33.30;;;;;;4948652;28;45798;-46
2023/12/29 16:33:33;;;;;;;0.93;0.70;;;24.80;33.30;;;;;;4953311;28;45444;-53
2023/12/29 16:35:59;;;;;;;1.07;0.67;;;24.80;33.20;;;;;;4939564;28;46023;-49
2023/12/29 16:38:25;;;;;;;0.60;0.60;;;24.80;33.10;;;;;;4959127;28;46008;-48
2023/12/29 16:40:53;;;;;;;0.77;0.60;;;24.90;33.20;;;;;;4963583;28;45292;-48
2023/12/29 16:43:19;;;;;;;1.00;0.60;;;24.90;33.10;;;;;;4959425;28;45384;-49
2023/12/29 16:45:44;;;;;;;1.00;0.68;;;24.90;33.10;;;;;;4962210;28;45993;-48
2023/12/29 16:48:10;;;;;;;1.00;0.50;;;24.90;33.00;;;;;;4972742;28;46475;-46
2023/12/29 16:50:35;;;;;;;0.65;0.60;;;25.00;33.00;;;;;;4958996;28;45608;-46
2023/12/29 16:53:01;;;;;;;0.90;0.70;;;25.00;33.00;;;;;;4971888;28;46385;-47
2023/12/29 16:55:28;;;;;;;0.60;0.60;;;25.00;32.90;;;;;;4968634;28;45719;-46
2023/12/29 16:57:54;;;;;;;0.90;0.80;;;25.00;32.90;;;;;;4938146;28;45137;-51
2023/12/29 17:00:19;;;;;;;0.90;0.57;;;25.10;32.90;;;;;;4919331;28;46096;-48
2023/12/29 17:02:45;;;;;;;0.90;0.60;;;25.10;32.90;;;;;;4968661;28;45757;-46
2023/12/29 17:05:11;;;;;;;1.30;0.70;;;25.10;32.80;;;;;;4939946;28;46615;-50
2023/12/29 17:07:36;;;;;;;0.87;0.70;;;25.10;32.80;;;;;;4967838;28;45467;-50
2023/12/29 17:10:02;;;;;;;0.63;0.43;;;25.10;32.70;;;;;;4962690;28;45723;-48
2023/12/29 17:12:31;;;;;;;0.80;0.60;;;25.20;32.80;;;;;;4936373;28;46452;-50